This is the latest recevied weather packets stored in our database for station/object KCCA. If no packets are shown the sender has not sent any weather packets the latest 1 day(s).
| Time | Temp. | Humidity | Pressure | Rain* | Wind** | Luminosity | Snow |
|---|---|---|---|---|---|---|---|
| 1836274576 | 20.56° C | 94% | 1017.3 hPa | - | 0 m/s | - | - |
| 1836274427 | 20.56° C | 94% | 1017.3 hPa | - | 0 m/s | - | - |
| 1836273975 | 20° C | 93% | 1016.9 hPa | - | 0 m/s | - | - |
| 1778047410 | 10° C | 93% | 1010.5 hPa | - | 1.34 m/s, 320° | - | - |
| 1778046807 | 10° C | 93% | 1010.8 hPa | - | 0 m/s | - | - |
| 1778046212 | 10° C | 93% | 1010.8 hPa | - | 0 m/s | - | - |
| 1778045605 | 10.56° C | 87% | 1010.8 hPa | - | 0 m/s | - | - |
| 1778045007 | 10.56° C | 87% | 1010.8 hPa | - | 0 m/s | - | - |
| 1778044406 | 10.56° C | 93% | 1010.8 hPa | - | 3.58 m/s, 330° | - | - |
| 1778043808 | 10.56° C | 93% | 1010.8 hPa | - | 3.58 m/s, 330° | - | - |
| 1778043205 | 10.56° C | 93% | 1010.5 hPa | - | 0 m/s | - | - |
| 1778042608 | 10.56° C | 93% | 1010.5 hPa | - | 0 m/s | - | - |
| 1778042007 | 11.67° C | 93% | 1009.8 hPa | - | 2.24 m/s, 340° | - | - |
| 1778041408 | 11.67° C | 93% | 1009.8 hPa | - | 2.24 m/s, 340° | - | - |
| 1778040809 | 11.67° C | 93% | 1009.8 hPa | - | 0 m/s | - | - |
| 1778040327 | 11.67° C | 93% | 1009.8 hPa | - | 0 m/s | - | - |
| 1778039605 | 11.67° C | 93% | 1008.8 hPa | - | 3.58 m/s, 340° | - | - |
| 1778039012 | 11.67° C | 93% | 1008.8 hPa | - | 3.58 m/s, 340° | - | - |
| 1778038411 | 12.78° C | 93% | 1008.8 hPa | - | 0 m/s | - | - |
| 1778037810 | 12.78° C | 93% | 1008.8 hPa | - | 0 m/s | - | - |
| 1778037206 | 13.89° C | 93% | 1008.8 hPa | - | 2.24 m/s, 310° | - | - |
| 1778036604 | 13.89° C | 93% | 1008.8 hPa | - | 2.24 m/s, 310° | - | - |
| 1778036005 | 13.89° C | 93% | 1008.8 hPa | - | 0 m/s | - | - |
| 1778035405 | 13.89° C | 93% | 1008.8 hPa | - | 0 m/s | - | - |
| 1778034804 | 13.89° C | 100% | 1007.8 hPa | - | 0 m/s | - | - |
* Rain since midnight (hover to see other rain measurements)
** Current wind speed in m/s (hover to see current wind gust speed)